Time;durP1;ratioP1;P1;durP2;ratioP2;P2;SDS_P1;SDS_P2;PMS_P1;PMS_P2;Temp;Humidity;BMP_temperature;BMP_pressure;BME280_temperature;BME280_humidity;BME280_pressure;Samples;Min_cycle;Max_cycle;Signal;HPM_P1;HPM_P2
2023/03/24 00:01:59;;;;;;;15.87;10.50;;;13.50;99.90;;;;;;5054523;28;21082;-61
2023/03/24 00:04:26;;;;;;;19.00;13.37;;;13.40;99.90;;;;;;5076219;28;20497;-61
2023/03/24 00:06:53;;;;;;;14.60;11.07;;;13.30;99.90;;;;;;5061069;28;20502;-61
2023/03/24 00:09:20;;;;;;;15.17;11.07;;;13.20;99.90;;;;;;5074259;28;20554;-61
2023/03/24 00:11:47;;;;;;;96.27;45.97;;;13.30;99.90;;;;;;5062645;28;20473;-61
2023/03/24 00:14:15;;;;;;;48.43;26.23;;;13.40;99.90;;;;;;5086054;28;20489;-61
2023/03/24 00:16:42;;;;;;;17.87;13.20;;;13.40;99.90;;;;;;5074278;28;20864;-61
2023/03/24 00:19:09;;;;;;;17.47;11.20;;;13.40;99.90;;;;;;5065550;28;20915;-61
2023/03/24 00:21:37;;;;;;;22.03;15.20;;;13.30;99.90;;;;;;5065015;28;21005;-61
2023/03/24 00:24:06;;;;;;;32.83;11.63;;;13.20;99.90;;;;;;5082599;27;20519;-61
2023/03/24 00:26:34;;;;;;;23.43;15.27;;;13.10;99.90;;;;;;5078300;28;20806;-61
2023/03/24 00:29:01;;;;;;;16.70;11.10;;;13.10;99.90;;;;;;5066155;28;20490;-61
2023/03/24 00:31:29;;;;;;;25.80;14.60;;;13.20;99.90;;;;;;5075669;28;21005;-61
2023/03/24 00:33:56;;;;;;;15.20;11.10;;;13.30;99.90;;;;;;5079804;28;20506;-61
2023/03/24 00:36:24;;;;;;;19.70;12.77;;;;;;;;;;5067645;28;20566;-61
2023/03/24 00:38:52;;;;;;;15.20;11.47;;;13.40;99.90;;;;;;5075240;28;20478;-61
2023/03/24 00:41:20;;;;;;;16.90;12.20;;;13.40;99.90;;;;;;5071596;28;20482;-61
2023/03/24 00:43:47;;;;;;;13.30;10.77;;;13.40;99.90;;;;;;5089904;28;20621;-61
2023/03/24 00:46:26;;;;;;;15.30;10.60;;;13.40;99.90;;;;;;5079509;28;20478;-60
2023/03/24 00:48:56;;;;;;;20.60;12.53;;;13.40;99.90;;;;;;5073487;28;20898;-61
2023/03/24 00:51:24;;;;;;;19.77;12.43;;;13.40;99.90;;;;;;5080465;28;20479;-61
2023/03/24 00:53:56;;;;;;;17.33;10.90;;;13.40;99.90;;;;;;5087640;28;21054;-61
2023/03/24 00:56:25;;;;;;;20.43;14.40;;;13.30;99.90;;;;;;5075633;28;20832;-61
2023/03/24 00:58:53;;;;;;;19.67;11.80;;;13.40;99.90;;;;;;5069850;28;20493;-61
2023/03/24 01:01:21;;;;;;;17.87;12.57;;;13.40;99.90;;;;;;5064513;28;20554;-61
2023/03/24 01:03:49;;;;;;;16.00;11.10;;;;;;;;;;5081381;27;21250;-61
2023/03/24 01:06:21;;;;;;;15.77;11.47;;;13.40;99.90;;;;;;5087093;28;20538;-61
2023/03/24 01:08:48;;;;;;;18.70;10.90;;;13.30;99.90;;;;;;5064683;28;20830;-61
2023/03/24 01:11:16;;;;;;;12.33;7.83;;;13.10;99.90;;;;;;5083470;28;20612;-61
2023/03/24 01:13:43;;;;;;;14.73;11.30;;;13.10;99.90;;;;;;5087906;28;20482;-62
2023/03/24 01:16:10;;;;;;;24.93;14.03;;;13.20;99.90;;;;;;5070635;28;20886;-61
2023/03/24 01:18:39;;;;;;;29.10;14.07;;;13.30;99.90;;;;;;5074373;28;20485;-61
2023/03/24 01:21:08;;;;;;;20.07;12.53;;;13.40;99.90;;;;;;5064590;28;20517;-61
2023/03/24 01:23:36;;;;;;;21.17;13.53;;;13.40;99.90;;;;;;5080880;28;20902;-61
2023/03/24 01:26:06;;;;;;;17.80;10.80;;;13.40;99.90;;;;;;5089215;28;20523;-61
2023/03/24 01:28:39;;;;;;;20.83;14.33;;;13.40;99.90;;;;;;5089525;28;20474;-61
2023/03/24 01:31:07;;;;;;;17.67;10.27;;;;;;;;;;5093694;28;20557;-61
2023/03/24 01:33:33;;;;;;;20.43;13.70;;;13.20;99.90;;;;;;5076008;28;20941;-61
2023/03/24 01:36:00;;;;;;;16.00;11.13;;;13.20;99.90;;;;;;5069713;28;20537;-61
2023/03/24 01:38:27;;;;;;;16.10;10.70;;;;;;;;;;5083679;28;20826;-61
2023/03/24 01:40:55;;;;;;;12.60;10.30;;;13.20;99.90;;;;;;5090160;28;20986;-61
2023/03/24 01:43:25;;;;;;;15.60;11.77;;;13.20;99.90;;;;;;5072204;28;20477;-61
2023/03/24 01:46:00;;;;;;;17.07;10.27;;;13.40;99.90;;;;;;5075184;28;20483;-61
2023/03/24 01:48:31;;;;;;;17.87;12.50;;;13.50;99.90;;;;;;5081987;28;21189;-62
2023/03/24 01:51:02;;;;;;;15.87;10.30;;;13.50;99.90;;;;;;5072706;28;20486;-61
2023/03/24 01:53:31;;;;;;;18.33;13.33;;;13.60;99.90;;;;;;5072003;28;20558;-62
2023/03/24 01:56:00;;;;;;;14.77;9.57;;;13.40;99.90;;;;;;5071368;28;20482;-61
2023/03/24 01:58:29;;;;;;;15.43;10.43;;;13.40;99.90;;;;;;5073545;28;20482;-61
2023/03/24 02:00:56;;;;;;;18.27;11.33;;;13.50;99.90;;;;;;5064760;28;20830;-61
2023/03/24 02:03:24;;;;;;;18.23;11.60;;;13.50;99.90;;;;;;5071200;28;20466;-61
2023/03/24 02:05:56;;;;;;;24.93;11.30;;;13.50;99.90;;;;;;5055282;28;20990;-60
2023/03/24 02:08:30;;;;;;;16.73;11.90;;;13.50;99.90;;;;;;5074044;28;20489;-61
2023/03/24 02:10:58;;;;;;;15.60;10.30;;;13.50;99.90;;;;;;5075105;28;20477;-61
2023/03/24 02:13:25;;;;;;;26.47;14.00;;;13.50;99.90;;;;;;5082293;28;20514;-61
2023/03/24 02:16:02;;;;;;;18.93;12.10;;;13.50;99.90;;;;;;5074420;28;20478;-61
2023/03/24 02:18:45;;;;;;;18.17;11.67;;;13.60;99.90;;;;;;5063666;28;20512;-61
2023/03/24 02:21:30;;;;;;;12.97;9.30;;;;;;;;;;5070670;28;20529;-61
2023/03/24 02:24:35;;;;;;;20.60;11.03;;;13.60;99.90;;;;;;5070789;28;21002;-61
2023/03/24 02:27:12;;;;;;;16.60;10.03;;;13.80;99.90;;;;;;5036066;28;20473;-61
2023/03/24 02:30:14;;;;;;;20.93;13.27;;;13.90;99.90;;;;;;5066108;28;21671;-61
2023/03/24 02:33:08;;;;;;;20.67;12.17;;;13.80;99.90;;;;;;5041853;28;20703;-61
2023/03/24 02:36:17;;;;;;;27.00;15.80;;;13.40;99.90;;;;;;5073613;28;21072;-61
2023/03/24 02:39:10;;;;;;;18.37;11.73;;;13.90;99.90;;;;;;5021187;28;20480;-61
2023/03/24 02:41:45;;;;;;;33.83;12.67;;;13.90;99.90;;;;;;5073330;27;20854;-61
2023/03/24 02:44:20;;;;;;;17.87;11.13;;;14.00;99.90;;;;;;5095465;28;21043;-60
2023/03/24 02:46:51;;;;;;;21.57;13.33;;;14.00;99.90;;;;;;5076791;28;21117;-61
2023/03/24 02:49:24;;;;;;;19.37;13.13;;;14.10;99.90;;;;;;5078446;28;20876;-62
2023/03/24 02:51:57;;;;;;;20.00;12.23;;;14.00;99.90;;;;;;5075166;28;20489;-61
2023/03/24 02:54:37;;;;;;;30.33;17.63;;;13.90;99.90;;;;;;5077308;28;20586;-62
2023/03/24 02:57:07;;;;;;;15.30;12.27;;;14.00;99.90;;;;;;5076873;28;21164;-62
2023/03/24 02:59:38;;;;;;;28.43;13.53;;;14.00;99.90;;;;;;5075307;28;21047;-61
2023/03/24 03:02:08;;;;;;;22.33;12.10;;;14.00;99.90;;;;;;5058274;28;20843;-61
2023/03/24 03:04:40;;;;;;;36.50;15.73;;;14.00;99.90;;;;;;5069052;28;20493;-61
2023/03/24 03:07:11;;;;;;;21.60;11.73;;;14.00;99.90;;;;;;5070459;28;20473;-61
2023/03/24 03:09:44;;;;;;;39.43;19.17;;;14.00;99.90;;;;;;5064533;28;20895;-61
2023/03/24 03:12:13;;;;;;;24.23;13.17;;;13.90;99.90;;;;;;5055501;28;20486;-61
2023/03/24 03:14:44;;;;;;;26.40;13.20;;;13.90;99.90;;;;;;5073070;28;21001;-62
2023/03/24 03:17:14;;;;;;;24.40;14.00;;;14.10;99.90;;;;;;5053011;28;20985;-62
2023/03/24 03:19:45;;;;;;;42.77;18.83;;;13.90;99.90;;;;;;5048477;28;20475;-62
2023/03/24 03:22:15;;;;;;;33.03;14.83;;;13.90;99.90;;;;;;5058228;28;20485;-61
2023/03/24 03:24:49;;;;;;;25.00;13.57;;;13.80;99.90;;;;;;5044830;28;21131;-61
2023/03/24 03:27:18;;;;;;;20.67;11.73;;;12.90;99.90;;;;;;5062565;28;20489;-60
2023/03/24 03:29:53;;;;;;;32.43;17.73;;;13.90;99.90;;;;;;5056606;27;20489;-61
2023/03/24 03:32:27;;;;;;;34.33;13.80;;;13.80;99.90;;;;;;5058328;28;20472;-61
2023/03/24 03:34:58;;;;;;;26.37;13.97;;;13.60;99.90;;;;;;5024775;28;20483;-61
2023/03/24 03:37:30;;;;;;;36.00;13.90;;;13.60;99.90;;;;;;5033610;28;20485;-61
2023/03/24 03:40:00;;;;;;;26.50;12.67;;;13.70;99.90;;;;;;5052592;28;20923;-61
2023/03/24 03:42:26;;;;;;;34.03;14.20;;;13.60;99.90;;;;;;5039133;28;20569;-61
2023/03/24 03:44:53;;;;;;;33.33;17.07;;;13.60;99.90;;;;;;5057262;28;20492;-61
2023/03/24 03:47:21;;;;;;;32.90;14.40;;;13.60;99.90;;;;;;5059877;28;20912;-61
2023/03/24 03:49:49;;;;;;;41.13;15.63;;;13.50;99.90;;;;;;5067950;27;20593;-61
2023/03/24 03:52:17;;;;;;;23.70;11.47;;;13.50;99.90;;;;;;5065893;28;20489;-61
2023/03/24 03:54:44;;;;;;;25.70;12.77;;;13.60;99.90;;;;;;5043684;28;20481;-61
2023/03/24 03:57:14;;;;;;;20.37;12.60;;;13.50;99.90;;;;;;5062030;28;20474;-61
2023/03/24 03:59:41;;;;;;;35.20;15.97;;;13.50;99.90;;;;;;4997542;28;21048;-61
2023/03/24 04:02:24;;;;;;;36.70;19.63;;;13.50;99.90;;;;;;5058432;27;20827;-61
2023/03/24 04:05:13;;;;;;;22.87;11.93;;;13.40;99.90;;;;;;5023057;28;21011;-61
2023/03/24 04:08:02;;;;;;;29.47;14.13;;;13.50;99.90;;;;;;5023516;28;20643;-61
2023/03/24 04:10:35;;;;;;;49.07;20.37;;;13.50;99.90;;;;;;4995606;28;20849;-61
2023/03/24 04:13:18;;;;;;;19.17;10.43;;;13.50;99.90;;;;;;5039568;28;20481;-61
2023/03/24 04:15:49;;;;;;;34.87;17.50;;;13.40;99.90;;;;;;5019606;28;20478;-61
2023/03/24 04:18:40;;;;;;;33.03;15.97;;;13.20;99.90;;;;;;5044573;28;20491;-62
2023/03/24 04:21:18;;;;;;;40.10;16.20;;;13.30;99.90;;;;;;5005909;28;20478;-61
2023/03/24 04:23:55;;;;;;;36.03;19.37;;;13.30;99.90;;;;;;5058447;28;20933;-61
2023/03/24 04:26:28;;;;;;;38.27;19.90;;;13.20;99.90;;;;;;5022157;28;20466;-61
2023/03/24 04:29:05;;;;;;;29.83;17.40;;;13.30;99.90;;;;;;5039862;28;20514;-61
2023/03/24 04:31:36;;;;;;;46.53;20.23;;;13.20;99.90;;;;;;5031132;27;20482;-61
2023/03/24 04:34:11;;;;;;;39.43;17.70;;;13.30;99.90;;;;;;5037743;28;20547;-61
2023/03/24 04:36:42;;;;;;;46.37;19.37;;;13.20;99.90;;;;;;5023257;27;20862;-61
2023/03/24 04:39:12;;;;;;;57.27;21.63;;;13.20;99.90;;;;;;5039630;28;21087;-61
2023/03/24 04:41:41;;;;;;;40.80;16.30;;;13.10;99.90;;;;;;5017095;27;20563;-61
2023/03/24 04:44:11;;;;;;;35.03;17.80;;;13.20;99.90;;;;;;5008985;28;21385;-61
2023/03/24 04:46:39;;;;;;;45.67;18.17;;;13.10;99.90;;;;;;5055713;28;20503;-61
2023/03/24 04:49:06;;;;;;;26.40;14.70;;;13.10;99.90;;;;;;5058461;28;20542;-61
2023/03/24 04:51:34;;;;;;;43.33;21.37;;;13.20;99.90;;;;;;5033361;28;20489;-61
2023/03/24 04:54:01;;;;;;;30.87;16.03;;;13.20;99.90;;;;;;5043531;28;20579;-61
2023/03/24 04:56:33;;;;;;;45.83;19.20;;;13.20;99.90;;;;;;5019435;28;20512;-61
2023/03/24 04:58:59;;;;;;;27.97;13.37;;;14.20;99.90;;;;;;5044045;28;20530;-61
2023/03/24 05:01:29;;;;;;;41.40;18.10;;;13.20;99.90;;;;;;5008612;28;20601;-61
2023/03/24 05:03:56;;;;;;;29.30;15.57;;;13.30;99.90;;;;;;5029401;28;20552;-61
2023/03/24 05:06:23;;;;;;;33.50;16.17;;;13.30;99.90;;;;;;5056052;28;20496;-61
2023/03/24 05:08:51;;;;;;;32.50;15.90;;;13.20;99.90;;;;;;4999152;28;20491;-61
2023/03/24 05:11:18;;;;;;;34.37;16.33;;;13.20;99.90;;;;;;4994125;28;20503;-61
2023/03/24 05:13:45;;;;;;;30.93;15.90;;;13.20;99.90;;;;;;5014942;28;20494;-61
2023/03/24 05:16:12;;;;;;;23.97;13.33;;;13.20;99.90;;;;;;5058129;28;20783;-61
2023/03/24 05:18:40;;;;;;;41.10;14.43;;;13.20;99.90;;;;;;5023811;28;20485;-61
2023/03/24 05:21:07;;;;;;;28.03;13.43;;;13.30;99.90;;;;;;5030654;28;20494;-61
2023/03/24 05:23:34;;;;;;;40.70;18.93;;;13.20;99.90;;;;;;5021863;28;21328;-61
2023/03/24 05:26:01;;;;;;;21.17;13.60;;;13.30;99.90;;;;;;5038953;28;20516;-61
2023/03/24 05:28:27;;;;;;;35.87;19.17;;;13.20;99.90;;;;;;5028251;28;20581;-61
2023/03/24 05:30:54;;;;;;;19.07;8.83;;;13.20;99.90;;;;;;5027928;28;20494;-61
2023/03/24 05:33:21;;;;;;;26.50;14.17;;;13.20;99.90;;;;;;5021855;28;20498;-61
2023/03/24 05:35:49;;;;;;;21.03;12.53;;;13.20;99.90;;;;;;5049178;28;20493;-60
2023/03/24 05:38:16;;;;;;;22.00;13.40;;;13.10;99.90;;;;;;5047147;28;20493;-61
2023/03/24 05:40:42;;;;;;;25.73;14.20;;;13.10;99.90;;;;;;5042168;28;21248;-60
2023/03/24 05:43:11;;;;;;;28.70;15.57;;;13.00;99.90;;;;;;5021218;28;20852;-61
2023/03/24 05:45:37;;;;;;;32.57;15.40;;;13.00;99.90;;;;;;5059454;28;20588;-62
2023/03/24 05:48:05;;;;;;;23.40;14.87;;;13.10;99.90;;;;;;4985594;28;20494;-61
2023/03/24 05:50:31;;;;;;;42.77;19.70;;;13.10;99.90;;;;;;5030245;28;20492;-61
2023/03/24 05:53:00;;;;;;;19.87;13.13;;;13.10;99.90;;;;;;5015507;28;20494;-61
2023/03/24 05:55:27;;;;;;;31.83;16.60;;;13.00;99.90;;;;;;5025964;28;21049;-60
2023/03/24 05:57:54;;;;;;;26.80;14.80;;;13.00;99.90;;;;;;5038347;28;20485;-61
2023/03/24 06:00:32;;;;;;;26.97;17.30;;;13.10;99.90;;;;;;5058011;28;20888;-61
2023/03/24 06:02:59;;;;;;;29.73;13.83;;;13.10;99.90;;;;;;5013213;28;20542;-61
2023/03/24 06:05:26;;;;;;;33.70;17.97;;;13.20;99.90;;;;;;5044303;27;20490;-61
2023/03/24 06:07:57;;;;;;;23.90;16.10;;;13.00;99.90;;;;;;5036869;28;20490;-61
2023/03/24 06:10:26;;;;;;;31.80;15.60;;;13.00;99.90;;;;;;5035597;28;20494;-61
2023/03/24 06:12:54;;;;;;;21.93;13.63;;;13.10;99.90;;;;;;5032181;28;20493;-61
2023/03/24 06:15:21;;;;;;;24.70;14.07;;;13.00;99.90;;;;;;5025949;28;20915;-61
2023/03/24 06:17:49;;;;;;;29.13;17.20;;;13.10;99.90;;;;;;5037525;28;20551;-61
2023/03/24 06:20:17;;;;;;;15.77;10.70;;;13.10;99.90;;;;;;5054333;28;20497;-61
2023/03/24 06:23:22;;;;;;;22.93;15.97;;;13.20;99.90;;;;;;5019547;28;20951;-62
2023/03/24 06:25:50;;;;;;;25.90;12.60;;;13.10;99.90;;;;;;5026065;28;20579;-61
2023/03/24 06:28:17;;;;;;;19.97;11.80;;;13.10;99.90;;;;;;4999872;28;20491;-61
2023/03/24 06:30:45;;;;;;;22.10;15.60;;;13.00;99.90;;;;;;5037480;28;20490;-61
2023/03/24 06:33:12;;;;;;;27.73;14.57;;;13.00;99.90;;;;;;5001789;28;20486;-61
2023/03/24 06:35:39;;;;;;;23.10;13.50;;;13.00;99.90;;;;;;5030326;28;20495;-62
2023/03/24 06:38:06;;;;;;;21.40;14.80;;;13.00;99.90;;;;;;5006703;28;20502;-61
2023/03/24 06:40:33;;;;;;;31.63;18.27;;;13.00;99.90;;;;;;5014240;28;20490;-61
2023/03/24 06:43:01;;;;;;;16.17;11.87;;;13.10;99.90;;;;;;5026799;28;20486;-61
2023/03/24 06:45:28;;;;;;;39.23;18.90;;;13.00;99.90;;;;;;5043403;28;20953;-61
2023/03/24 06:47:55;;;;;;;31.10;16.70;;;13.00;99.90;;;;;;5050947;28;20482;-61
2023/03/24 06:50:25;;;;;;;23.43;11.87;;;13.00;99.90;;;;;;5005612;28;20571;-61
2023/03/24 06:52:52;;;;;;;26.67;13.07;;;13.00;99.90;;;;;;5043012;28;20576;-61
2023/03/24 06:55:21;;;;;;;20.40;10.50;;;13.00;99.90;;;;;;5052888;28;20502;-61
2023/03/24 06:57:48;;;;;;;17.13;9.63;;;13.10;99.90;;;;;;5034639;28;20515;-61
2023/03/24 07:00:16;;;;;;;21.67;14.00;;;13.00;99.90;;;;;;5051672;28;20579;-61
2023/03/24 07:02:43;;;;;;;20.50;10.53;;;12.90;99.90;;;;;;5032907;28;20482;-62
2023/03/24 07:05:10;;;;;;;35.27;15.33;;;12.80;99.90;;;;;;5019432;28;20497;-61
2023/03/24 07:07:37;;;;;;;31.10;16.63;;;13.00;99.90;;;;;;5048889;28;20496;-61
2023/03/24 07:10:05;;;;;;;19.83;12.27;;;13.10;99.90;;;;;;5062510;28;21015;-61
2023/03/24 07:12:31;;;;;;;24.00;13.37;;;13.00;99.90;;;;;;5049837;28;20501;-60
2023/03/24 07:14:58;;;;;;;20.63;10.40;;;13.00;99.90;;;;;;5018051;28;20503;-61
2023/03/24 07:17:26;;;;;;;19.77;9.23;;;13.10;99.90;;;;;;5027029;28;20923;-61
2023/03/24 07:19:53;;;;;;;17.07;7.93;;;13.00;99.90;;;;;;5026320;28;20491;-61
2023/03/24 07:22:20;;;;;;;15.37;7.50;;;13.10;99.90;;;;;;5037576;27;20485;-61
2023/03/24 07:24:46;;;;;;;18.60;8.43;;;13.20;99.90;;;;;;5017427;28;20493;-61
2023/03/24 07:27:13;;;;;;;12.13;6.23;;;13.20;99.90;;;;;;5061551;28;21021;-61
2023/03/24 07:29:40;;;;;;;25.10;14.70;;;13.20;99.90;;;;;;5076325;27;20530;-61
2023/03/24 07:32:06;;;;;;;13.23;8.27;;;13.10;99.90;;;;;;4988266;27;20509;-61
2023/03/24 07:34:36;;;;;;;44.03;13.47;;;13.10;99.90;;;;;;5033598;28;20541;-61
2023/03/24 07:37:03;;;;;;;13.17;7.67;;;13.10;99.90;;;;;;5040555;28;20893;-61
2023/03/24 07:39:29;;;;;;;26.83;12.87;;;13.20;99.90;;;;;;5021081;28;20486;-61
2023/03/24 07:41:56;;;;;;;17.23;6.80;;;13.20;99.90;;;;;;5047976;28;20985;-61
2023/03/24 07:44:23;;;;;;;19.67;13.10;;;13.10;99.90;;;;;;5040006;28;20466;-61
2023/03/24 07:46:50;;;;;;;13.90;7.47;;;13.10;99.90;;;;;;5019791;28;20496;-61
2023/03/24 07:49:16;;;;;;;17.07;7.17;;;13.10;99.90;;;;;;5033798;28;20654;-61
2023/03/24 07:51:44;;;;;;;14.10;8.97;;;13.20;99.90;;;;;;5055800;28;20677;-61
2023/03/24 07:54:11;;;;;;;19.57;11.03;;;13.20;99.90;;;;;;5028967;28;20506;-61
2023/03/24 07:56:38;;;;;;;27.87;9.20;;;13.20;99.90;;;;;;5032423;28;20959;-61
2023/03/24 07:59:05;;;;;;;16.03;7.80;;;13.40;99.90;;;;;;5029620;28;20825;-62
2023/03/24 08:01:35;;;;;;;30.17;13.13;;;13.30;99.90;;;;;;5051179;27;20496;-61
2023/03/24 08:04:02;;;;;;;23.30;10.53;;;12.00;99.90;;;;;;5028911;28;20566;-61
2023/03/24 08:06:29;;;;;;;37.47;13.77;;;13.40;99.90;;;;;;5037705;28;20490;-61
2023/03/24 08:08:57;;;;;;;23.60;10.90;;;13.30;99.90;;;;;;5043205;28;20648;-61
2023/03/24 08:11:24;;;;;;;32.07;11.43;;;13.40;99.90;;;;;;5044966;28;20483;-61
2023/03/24 08:13:50;;;;;;;20.53;8.80;;;13.50;99.90;;;;;;5013188;28;20479;-61
2023/03/24 08:16:17;;;;;;;31.57;11.23;;;13.60;99.90;;;;;;5023185;28;20998;-61
2023/03/24 08:18:44;;;;;;;15.33;7.17;;;13.70;99.90;;;;;;5030851;28;20502;-61
2023/03/24 08:21:10;;;;;;;41.43;12.03;;;13.50;99.90;;;;;;5037589;28;20477;-61
2023/03/24 08:23:37;;;;;;;38.83;13.33;;;13.60;99.90;;;;;;4988093;28;21103;-61
2023/03/24 08:26:06;;;;;;;20.73;8.63;;;13.80;99.90;;;;;;5055150;28;20509;-61
2023/03/24 08:28:32;;;;;;;38.60;12.53;;;13.70;99.90;;;;;;5004818;28;20532;-61
2023/03/24 08:30:59;;;;;;;12.97;7.43;;;13.70;99.90;;;;;;5035310;28;20483;-62
2023/03/24 08:33:26;;;;;;;34.00;10.47;;;13.70;99.90;;;;;;5036812;28;20486;-61
2023/03/24 08:35:56;;;;;;;22.90;8.87;;;13.70;99.90;;;;;;4994848;28;20905;-61
2023/03/24 08:38:29;;;;;;;24.20;9.13;;;13.80;99.90;;;;;;5000901;28;20525;-61
2023/03/24 08:41:00;;;;;;;21.70;10.03;;;13.60;99.90;;;;;;5049575;28;20659;-61
2023/03/24 08:43:30;;;;;;;16.70;7.10;;;13.50;99.90;;;;;;5014882;28;21508;-61
2023/03/24 08:45:56;;;;;;;15.60;7.57;;;13.50;99.90;;;;;;5025668;28;20523;-61
2023/03/24 08:48:24;;;;;;;25.17;9.37;;;13.40;99.90;;;;;;5059470;28;20502;-61
2023/03/24 08:50:51;;;;;;;16.07;8.60;;;13.30;99.90;;;;;;5033020;28;20489;-61
2023/03/24 08:53:17;;;;;;;17.87;8.53;;;13.30;99.90;;;;;;5025229;28;20482;-61
2023/03/24 08:55:44;;;;;;;22.37;8.93;;;13.40;99.90;;;;;;5004884;28;20490;-60
2023/03/24 08:58:14;;;;;;;24.10;11.93;;;13.40;99.90;;;;;;5039211;28;20501;-62
2023/03/24 09:00:43;;;;;;;11.63;6.20;;;13.30;99.90;;;;;;5024325;28;21290;-61
2023/03/24 09:03:13;;;;;;;17.57;9.80;;;13.30;99.90;;;;;;5059805;28;20916;-61
2023/03/24 09:05:40;;;;;;;18.93;9.30;;;13.30;99.90;;;;;;5025754;28;21405;-62
2023/03/24 09:08:07;;;;;;;17.50;6.97;;;13.30;99.90;;;;;;5012490;28;21188;-61
2023/03/24 09:10:33;;;;;;;27.83;13.33;;;13.20;99.90;;;;;;5016671;28;20582;-62
2023/03/24 09:13:00;;;;;;;14.03;7.83;;;13.30;99.90;;;;;;5031084;28;20489;-61
2023/03/24 09:15:27;;;;;;;30.90;12.57;;;13.40;99.90;;;;;;5046511;28;20493;-61
2023/03/24 09:17:55;;;;;;;10.00;4.90;;;13.40;99.90;;;;;;4998838;28;20538;-61
2023/03/24 09:20:21;;;;;;;21.27;10.77;;;13.50;99.90;;;;;;5043142;28;21025;-62
2023/03/24 09:22:48;;;;;;;16.50;6.30;;;13.20;99.90;;;;;;5029530;28;20474;-61
2023/03/24 09:25:17;;;;;;;21.43;11.03;;;13.40;99.90;;;;;;5034854;28;20500;-61
2023/03/24 09:27:44;;;;;;;17.80;9.77;;;13.40;99.90;;;;;;5017266;28;20726;-60
2023/03/24 09:30:13;;;;;;;21.10;10.03;;;13.40;99.90;;;;;;5043548;28;20482;-61
2023/03/24 09:32:40;;;;;;;21.53;9.90;;;13.50;99.90;;;;;;5005569;28;20967;-61
2023/03/24 09:35:09;;;;;;;19.67;8.83;;;;;;;;;;5040113;28;20493;-62
2023/03/24 09:37:37;;;;;;;22.40;11.53;;;13.60;99.90;;;;;;5017709;28;20495;-61
2023/03/24 09:40:06;;;;;;;16.53;8.87;;;13.70;99.90;;;;;;5058988;28;20476;-61
2023/03/24 09:42:37;;;;;;;26.47;12.10;;;13.70;99.90;;;;;;5023806;28;20565;-61
2023/03/24 09:45:12;;;;;;;14.43;9.00;;;13.60;99.90;;;;;;5037440;28;20528;-61
2023/03/24 09:47:42;;;;;;;20.43;10.47;;;13.70;99.90;;;;;;5023358;28;21035;-61
2023/03/24 09:53:42;;;;;;;12.03;6.60;;;14.20;99.90;;;;;;5001922;28;20805;-61
2023/03/24 09:56:13;;;;;;;12.77;7.17;;;14.30;99.90;;;;;;5033171;28;20586;-62
2023/03/24 09:58:41;;;;;;;15.00;7.60;;;14.40;99.90;;;;;;5060303;28;20497;-61
2023/03/24 10:01:13;;;;;;;13.80;7.10;;;14.30;99.90;;;;;;5048543;28;20612;-61
2023/03/24 10:03:40;;;;;;;15.57;4.80;;;14.10;99.90;;;;;;5052848;28;20902;-61
2023/03/24 10:06:11;;;;;;;14.47;6.60;;;14.10;99.90;;;;;;5026196;28;20551;-61
2023/03/24 10:08:43;;;;;;;18.10;7.50;;;13.90;99.90;;;;;;5014117;28;20551;-61
2023/03/24 10:11:16;;;;;;;15.13;5.63;;;13.80;99.90;;;;;;5042528;28;20474;-61
2023/03/24 10:13:55;;;;;;;12.57;6.13;;;13.80;99.90;;;;;;5042899;28;20490;-61
2023/03/24 10:16:28;;;;;;;16.73;6.47;;;13.80;99.90;;;;;;5055116;28;20738;-61
2023/03/24 10:19:01;;;;;;;25.30;10.70;;;13.70;99.90;;;;;;5007108;28;20869;-62
2023/03/24 10:21:35;;;;;;;30.00;8.80;;;13.60;99.90;;;;;;5055083;28;20474;-61
2023/03/24 10:24:07;;;;;;;10.20;5.23;;;13.50;99.90;;;;;;5032068;28;20490;-61
2023/03/24 10:26:40;;;;;;;13.37;6.00;;;13.40;99.90;;;;;;5035831;28;20482;-61
2023/03/24 10:29:23;;;;;;;13.77;5.90;;;13.40;99.90;;;;;;5051715;28;20485;-61
2023/03/24 10:31:52;;;;;;;29.27;11.87;;;;;;;;;;5049884;28;20485;-61
2023/03/24 10:34:21;;;;;;;17.17;7.67;;;13.30;99.90;;;;;;5040053;28;21116;-61
2023/03/24 10:36:51;;;;;;;22.63;9.60;;;13.40;99.90;;;;;;5038587;28;20487;-61
2023/03/24 10:39:17;;;;;;;14.30;6.07;;;13.40;99.90;;;;;;5006506;28;20589;-61
2023/03/24 10:41:44;;;;;;;22.60;9.70;;;13.50;99.90;;;;;;5008161;28;20491;-61
2023/03/24 10:44:12;;;;;;;10.27;4.83;;;13.40;99.90;;;;;;5027249;28;20512;-61
2023/03/24 10:46:45;;;;;;;31.50;7.20;;;13.40;99.90;;;;;;5051095;28;20482;-61
2023/03/24 10:49:16;;;;;;;13.53;6.30;;;13.30;99.90;;;;;;5040342;28;21043;-61
2023/03/24 10:51:47;;;;;;;25.63;9.40;;;13.40;99.90;;;;;;5034142;28;20561;-61
2023/03/24 10:54:19;;;;;;;15.80;6.30;;;13.40;99.90;;;;;;5013370;28;20479;-61
2023/03/24 10:56:47;;;;;;;22.90;9.77;;;13.40;99.90;;;;;;5040713;28;20820;-61
2023/03/24 10:59:26;;;;;;;10.93;5.33;;;13.40;99.90;;;;;;5031718;28;20803;-61
2023/03/24 11:01:59;;;;;;;19.90;9.10;;;13.50;99.90;;;;;;5054325;28;20635;-60
2023/03/24 11:04:27;;;;;;;16.57;7.43;;;13.50;99.90;;;;;;5008220;28;20624;-61
2023/03/24 11:07:00;;;;;;;18.43;7.47;;;13.60;99.90;;;;;;5049756;28;20573;-61
2023/03/24 11:09:28;;;;;;;21.30;7.40;;;13.70;99.90;;;;;;5039881;28;20510;-60
2023/03/24 11:11:57;;;;;;;28.10;7.57;;;13.70;99.90;;;;;;5033747;28;20483;-60
2023/03/24 11:14:26;;;;;;;16.70;7.97;;;13.80;99.90;;;;;;5008045;28;20887;-61
2023/03/24 11:17:02;;;;;;;15.00;7.50;;;13.80;99.90;;;;;;5029149;28;20830;-61
2023/03/24 11:19:31;;;;;;;25.07;8.73;;;14.00;99.90;;;;;;5032329;28;21031;-61
2023/03/24 11:22:02;;;;;;;24.20;9.43;;;14.10;99.90;;;;;;5035688;28;21059;-61
2023/03/24 11:24:34;;;;;;;12.97;6.60;;;14.50;99.90;;;;;;5040884;28;20589;-61
2023/03/24 11:27:02;;;;;;;39.37;18.87;;;14.70;99.90;;;;;;5020680;28;20485;-61
2023/03/24 11:29:31;;;;;;;13.83;6.90;;;14.70;99.90;;;;;;5042112;28;20478;-61
2023/03/24 11:32:00;;;;;;;14.53;5.20;;;15.00;99.90;;;;;;5034428;28;20474;-61
2023/03/24 11:34:32;;;;;;;14.73;5.80;;;15.00;99.90;;;;;;5045638;28;20582;-62
2023/03/24 11:37:01;;;;;;;14.50;7.40;;;15.00;99.90;;;;;;5029802;28;20577;-61
2023/03/24 11:39:31;;;;;;;10.10;6.00;;;14.90;99.90;;;;;;5028784;28;21143;-61
2023/03/24 11:42:13;;;;;;;14.53;8.23;;;15.00;99.90;;;;;;5045863;28;20788;-62
2023/03/24 11:44:46;;;;;;;14.37;5.63;;;14.90;99.90;;;;;;5009237;28;20501;-61
2023/03/24 11:47:20;;;;;;;12.53;5.70;;;15.00;99.90;;;;;;5007577;28;21014;-61
2023/03/24 11:49:52;;;;;;;19.23;7.23;;;15.10;99.90;;;;;;5057992;28;20568;-61
2023/03/24 11:52:24;;;;;;;20.10;7.77;;;15.20;99.90;;;;;;5042799;28;20478;-62
2023/03/24 11:54:52;;;;;;;22.33;9.23;;;15.10;99.90;;;;;;5015523;28;20481;-61
2023/03/24 11:57:31;;;;;;;10.40;4.77;;;15.10;99.90;;;;;;5019093;28;20869;-61
2023/03/24 12:00:07;;;;;;;17.60;8.10;;;15.10;99.90;;;;;;5013738;28;20526;-61
2023/03/24 12:02:47;;;;;;;10.63;6.13;;;15.20;99.90;;;;;;5040193;28;20529;-61
2023/03/24 12:05:31;;;;;;;11.10;5.40;;;15.40;99.90;;;;;;5000016;28;20515;-62
2023/03/24 12:08:23;;;;;;;16.03;8.30;;;15.70;99.90;;;;;;4965239;28;20486;-61
2023/03/24 12:11:05;;;;;;;21.60;8.13;;;15.90;99.90;;;;;;4985546;28;20884;-61
2023/03/24 12:13:36;;;;;;;17.33;6.47;;;16.00;99.90;;;;;;5032611;28;20489;-61
2023/03/24 12:16:17;;;;;;;10.33;3.83;;;16.40;99.90;;;;;;5001735;28;20486;-61
2023/03/24 12:18:57;;;;;;;13.67;6.93;;;16.60;99.90;;;;;;5029803;28;20523;-61
2023/03/24 12:21:37;;;;;;;9.87;5.60;;;16.60;99.90;;;;;;5012943;28;20491;-61
2023/03/24 12:24:17;;;;;;;11.30;4.33;;;16.70;99.90;;;;;;5000696;28;20490;-61
2023/03/24 12:26:45;;;;;;;16.40;8.63;;;16.70;99.90;;;;;;5031359;28;20558;-61
2023/03/24 12:29:44;;;;;;;15.43;5.90;;;16.60;99.90;;;;;;5064737;28;20470;-61
2023/03/24 12:32:24;;;;;;;8.40;5.00;;;16.60;99.90;;;;;;5048315;27;20485;-61
2023/03/24 12:35:26;;;;;;;22.90;7.23;;;16.40;99.70;;;;;;5026382;28;20500;-61
2023/03/24 12:38:03;;;;;;;17.13;7.93;;;16.40;99.70;;;;;;5028150;28;20769;-61
2023/03/24 12:40:58;;;;;;;15.60;7.40;;;16.30;99.90;;;;;;5023916;28;20836;-61
2023/03/24 12:43:37;;;;;;;15.20;5.30;;;16.20;99.10;;;;;;5030175;28;20798;-61
2023/03/24 12:46:15;;;;;;;14.57;6.10;;;16.00;99.10;;;;;;5004788;28;20485;-61
2023/03/24 12:49:01;;;;;;;12.23;7.30;;;15.90;99.80;;;;;;5008857;28;20482;-61
2023/03/24 12:51:41;;;;;;;13.60;6.27;;;15.80;99.60;;;;;;5056781;28;20463;-61
2023/03/24 12:54:23;;;;;;;13.00;5.57;;;15.90;99.80;;;;;;5024988;28;20521;-61
2023/03/24 12:56:54;;;;;;;19.63;9.43;;;15.90;99.20;;;;;;5038491;28;20503;-62